Time;durP1;ratioP1;P1;durP2;ratioP2;P2;SDS_P1;SDS_P2;PMS_P1;PMS_P2;Temp;Humidity;BMP_temperature;BMP_pressure;BME280_temperature;BME280_humidity;BME280_pressure;Samples;Min_cycle;Max_cycle;Signal;HPM_P1;HPM_P2
2021/06/16 16:12:30;;;;;;;4.32;1.90;;;;;;;23.08;44.76;94630.44;2970100;40;20149;-70
2021/06/16 16:14:32;;;;;;;2.95;1.90;;;;;;;23.03;44.29;94628.47;2966681;40;20092;-71
2021/06/16 16:16:34;;;;;;;2.95;1.73;;;;;;;23.05;43.92;94625.56;2970235;39;20144;-71
2021/06/16 16:18:38;;;;;;;5.53;3.00;;;;;;;23.05;44.53;94634.38;2974935;39;20059;-84
2021/06/16 16:20:41;;;;;;;2.80;1.98;;;;;;;22.97;44.60;94636.59;2975995;39;20108;-83
2021/06/16 16:22:46;;;;;;;4.55;2.20;;;;;;;23.05;44.56;94633.59;2976827;39;20060;-82
2021/06/16 16:24:48;;;;;;;5.40;2.85;;;;;;;23.03;44.48;94641.03;2973030;40;20051;-84
2021/06/16 16:26:50;;;;;;;3.30;1.55;;;;;;;22.92;44.32;94634.66;2974224;39;20126;-83
2021/06/16 16:28:51;;;;;;;5.22;3.08;;;;;;;22.92;44.77;94628.50;2975104;39;20148;-82
2021/06/16 16:30:53;;;;;;;3.17;1.95;;;;;;;22.90;44.81;94631.41;2967215;40;20040;-74
2021/06/16 16:32:56;;;;;;;3.70;2.20;;;;;;;22.84;45.07;94638.53;2974153;39;20043;-71
2021/06/16 16:34:58;;;;;;;3.03;1.98;;;;;;;22.83;45.05;94638.75;2980864;39;20132;-72
2021/06/16 16:37:00;;;;;;;3.55;2.17;;;;;;;22.79;44.62;94637.59;2970736;39;20102;-72
2021/06/16 16:39:04;;;;;;;2.97;1.90;;;;;;;22.75;44.65;94645.25;2975258;40;20418;-71
2021/06/16 16:41:06;;;;;;;4.45;1.90;;;;;;;22.73;44.19;94642.00;2973907;39;20048;-71
2021/06/16 16:43:11;;;;;;;2.50;1.70;;;;;;;22.69;44.47;94651.53;2971298;39;20413;-73
2021/06/16 16:45:13;;;;;;;2.63;1.52;;;;;;;22.77;44.08;94653.03;2974652;39;20056;-72
2021/06/16 16:47:16;;;;;;;3.55;2.22;;;;;;;22.81;44.43;94663.00;2973264;39;20428;-72
2021/06/16 16:49:18;;;;;;;3.85;1.70;;;;;;;22.74;43.98;94658.88;2972799;39;20186;-71
2021/06/16 16:51:19;;;;;;;3.78;2.28;;;;;;;22.73;44.34;94658.03;2974198;39;20062;-73
2021/06/16 16:53:21;;;;;;;3.47;1.88;;;;;;;22.57;45.54;94656.91;2971661;39;20059;-72
2021/06/16 16:55:24;;;;;;;8.82;4.45;;;;;;;22.55;47.43;94661.66;2972527;39;20142;-73
2021/06/16 16:57:26;;;;;;;5.85;2.70;;;;;;;22.59;47.33;94659.34;2972796;39;20051;-71
2021/06/16 16:59:28;;;;;;;6.22;3.35;;;;;;;22.63;47.81;94665.84;2973110;39;20112;-72
2021/06/16 17:01:30;;;;;;;4.10;2.30;;;;;;;22.66;48.41;94668.03;2972676;39;20071;-72
2021/06/16 17:03:32;;;;;;;7.55;2.60;;;;;;;22.57;48.98;94664.13;2971006;39;20055;-73
2021/06/16 17:05:34;;;;;;;3.85;2.47;;;;;;;22.55;49.86;94669.69;2970185;40;20079;-74
2021/06/16 17:07:40;;;;;;;5.25;2.95;;;;;;;22.33;50.48;94669.47;2972621;39;20057;-73
2021/06/16 17:09:44;;;;;;;6.82;2.72;;;;;;;22.48;50.68;94667.13;2971691;39;20163;-83
2021/06/16 17:11:46;;;;;;;4.07;2.45;;;;;;;22.36;51.05;94666.31;2976975;39;20108;-85
2021/06/16 17:13:49;;;;;;;3.80;2.45;;;;;;;22.49;50.97;94668.75;2981478;39;20139;-83
2021/06/16 17:15:51;;;;;;;5.05;3.08;;;;;;;22.38;51.50;94672.25;2977414;39;20140;-83
2021/06/16 17:17:57;;;;;;;6.45;3.58;;;;;;;22.39;51.47;94671.22;2970480;40;20044;-82
2021/06/16 17:19:59;;;;;;;5.05;2.92;;;;;;;22.50;50.95;94682.94;2975595;39;20064;-83
2021/06/16 17:22:01;;;;;;;4.05;2.42;;;;;;;22.56;51.38;94678.50;2971702;40;20190;-83
2021/06/16 17:24:07;;;;;;;4.47;2.50;;;;;;;22.57;50.88;94682.81;2969683;40;20067;-82
2021/06/16 17:26:09;;;;;;;3.58;2.40;;;;;;;22.46;51.45;94687.91;2975007;39;20100;-82
2021/06/16 17:28:13;;;;;;;4.80;2.80;;;;;;;22.39;52.01;94679.22;2974854;40;20084;-81
2021/06/16 17:30:18;;;;;;;4.82;2.58;;;;;;;22.38;51.82;94692.78;2975855;40;20131;-71
2021/06/16 17:32:19;;;;;;;3.40;2.30;;;;;;;22.32;52.25;94691.84;2974426;39;20051;-71
2021/06/16 17:34:22;;;;;;;3.50;2.10;;;;;;;22.28;52.64;94696.03;2975316;39;20416;-71
2021/06/16 17:36:26;;;;;;;3.80;2.17;;;;;;;22.29;52.48;94687.00;2974113;39;20058;-73
2021/06/16 17:38:28;;;;;;;3.10;2.10;;;;;;;22.31;52.57;94684.91;2965325;40;20075;-72
2021/06/16 17:40:30;;;;;;;2.60;2.05;;;;;;;22.33;52.28;94690.81;2964924;40;20056;-70
2021/06/16 17:42:31;;;;;;;2.92;1.80;;;;;;;22.31;52.62;94692.09;2975180;39;20442;-72
2021/06/16 17:44:33;;;;;;;3.00;2.10;;;;;;;22.28;52.81;94694.19;2973800;39;20128;-71
2021/06/16 17:46:35;;;;;;;4.88;2.33;;;;;;;22.21;52.56;94690.78;2970887;39;20178;-71
2021/06/16 17:48:37;;;;;;;2.70;2.17;;;;;;;22.15;52.75;94691.69;2974138;39;20063;-69
2021/06/16 17:50:43;;;;;;;3.72;2.60;;;;;;;22.16;52.67;94689.88;2974914;39;20052;-71
2021/06/16 17:52:45;;;;;;;;;;;;;;;22.16;53.00;94695.19;2976049;39;20096;-83
2021/06/16 17:54:46;;;;;;;4.85;3.08;;;;;;;22.11;52.80;94690.53;2976863;39;20287;-82
2021/06/16 17:56:48;;;;;;;6.60;2.90;;;;;;;21.99;53.32;94695.06;2975388;39;20092;-82
2021/06/16 17:58:50;;;;;;;6.70;2.63;;;;;;;21.94;53.53;94702.91;2969912;40;20394;-82
2021/06/16 18:00:52;;;;;;;4.65;2.17;;;;;;;21.89;53.47;94708.94;2976969;39;20109;-83
2021/06/16 18:02:58;;;;;;;13.95;4.97;;;;;;;21.86;53.56;94704.91;2972834;39;20052;-85
2021/06/16 18:05:00;;;;;;;5.80;2.40;;;;;;;21.84;53.71;94704.31;2975431;39;20338;-82
2021/06/16 18:07:02;;;;;;;4.15;2.70;;;;;;;21.78;54.07;94705.22;2976433;39;20367;-82
2021/06/16 18:09:06;;;;;;;6.07;2.55;;;;;;;21.78;53.86;94709.75;2975111;40;20088;-83
2021/06/16 18:11:07;;;;;;;5.07;2.65;;;;;;;21.79;53.86;94711.34;2977363;39;20128;-86
2021/06/16 18:13:09;;;;;;;5.55;3.13;;;;;;;21.78;53.69;94715.88;2976892;39;20377;-83
2021/06/16 18:15:12;;;;;;;3.88;2.63;;;;;;;21.77;53.79;94718.78;2976900;39;20067;-83
2021/06/16 18:17:14;;;;;;;4.30;3.10;;;;;;;21.77;54.17;94713.44;2977081;39;20151;-81
2021/06/16 18:19:16;;;;;;;7.00;4.70;;;;;;;21.74;54.06;94722.72;2975215;39;20594;-83
2021/06/16 18:21:23;;;;;;;9.27;4.75;;;;;;;21.73;54.19;94721.09;2976140;39;20096;-84
2021/06/16 18:23:25;;;;;;;12.73;7.10;;;;;;;21.76;54.36;94722.50;2976500;39;20044;-82
2021/06/16 18:25:27;;;;;;;5.82;4.00;;;;;;;21.76;54.42;94715.28;2976357;39;20397;-84
2021/06/16 18:27:39;;;;;;;5.57;3.40;;;;;;;21.74;54.41;94724.56;2969348;39;20060;-83
2021/06/16 18:29:40;;;;;;;6.22;3.25;;;;;;;21.72;54.38;94726.66;2974878;39;20096;-81
2021/06/16 18:31:42;;;;;;;6.20;3.83;;;;;;;21.70;54.64;94728.72;2974566;39;20067;-81
2021/06/16 18:33:44;;;;;;;5.47;3.22;;;;;;;21.67;54.38;94730.00;2975961;40;20133;-82
2021/06/16 18:35:46;;;;;;;5.20;3.13;;;;;;;21.63;54.85;94736.81;2972284;39;20123;-86
2021/06/16 18:37:49;;;;;;;4.35;2.95;;;;;;;21.59;54.80;94741.78;2976317;39;20132;-84
2021/06/16 18:39:55;;;;;;;4.05;2.40;;;;;;;21.57;54.66;94741.19;2977720;39;20096;-83
2021/06/16 18:42:01;;;;;;;3.35;2.35;;;;;;;21.55;54.96;94743.28;2970244;39;20056;-85
2021/06/16 18:44:03;;;;;;;3.50;2.28;;;;;;;21.56;54.96;94747.59;2972031;39;20068;-86
2021/06/16 18:46:05;;;;;;;4.93;2.60;;;;;;;21.52;55.00;94749.06;2972636;39;20050;-83
2021/06/16 18:48:09;;;;;;;4.68;2.40;;;;;;;21.53;54.92;94745.38;2981064;39;20064;-84
2021/06/16 18:50:11;;;;;;;4.13;2.78;;;;;;;21.48;54.90;94753.22;2971926;39;20085;-84
2021/06/16 18:52:14;;;;;;;3.50;2.70;;;;;;;21.45;55.06;94751.03;2971725;40;20430;-86
2021/06/16 18:54:25;;;;;;;3.50;3.03;;;;;;;21.43;55.16;94753.09;2974355;39;20113;-83
2021/06/16 18:56:26;;;;;;;3.08;2.33;;;;;;;21.41;55.16;94755.13;2976052;39;20136;-85
2021/06/16 18:58:29;;;;;;;3.75;2.63;;;;;;;21.33;55.60;94761.59;2972205;39;20367;-84
2021/06/16 19:00:43;;;;;;;3.40;2.30;;;;;;;21.24;56.30;94762.94;2974446;39;20486;-82
2021/06/16 19:02:56;;;;;;;6.85;3.83;;;;;;;21.22;55.97;94765.81;2969161;40;20132;-73
2021/06/16 19:05:19;;;;;;;3.88;2.42;;;;;;;21.20;55.77;94769.75;2969042;39;20071;-73
2021/06/16 19:07:21;;;;;;;3.65;2.35;;;;;;;21.22;56.14;94775.66;2970800;39;20586;-73
2021/06/16 19:09:23;;;;;;;3.90;2.05;;;;;;;21.20;55.93;94772.41;2971360;39;20088;-71
2021/06/16 19:11:25;;;;;;;3.80;2.40;;;;;;;21.18;56.29;94780.59;2970065;39;20293;-72
2021/06/16 19:13:27;;;;;;;5.70;2.70;;;;;;;21.18;56.16;94777.94;2973415;39;20067;-72
2021/06/16 19:15:30;;;;;;;3.40;2.35;;;;;;;21.16;56.40;94774.69;2971492;39;20088;-73
2021/06/16 19:17:32;;;;;;;3.20;2.30;;;;;;;21.15;56.66;94766.94;2972911;39;20052;-74
2021/06/16 19:19:35;;;;;;;4.60;2.25;;;;;;;21.12;56.70;94770.84;2974459;39;20087;-72
2021/06/16 19:21:37;;;;;;;4.18;2.58;;;;;;;21.12;56.62;94773.50;2974528;39;20135;-70
2021/06/16 19:23:39;;;;;;;3.25;2.35;;;;;;;21.15;56.59;94773.06;2974159;40;20060;-72
2021/06/16 19:25:43;;;;;;;5.18;2.40;;;;;;;21.17;56.55;94784.31;2965379;39;20088;-70
2021/06/16 19:27:45;;;;;;;;;;;;;;;21.14;56.74;94783.94;2974077;40;20047;-71
2021/06/16 19:29:47;;;;;;;5.43;2.20;;;;;;;21.12;56.88;94796.66;2968048;39;20333;-72
2021/06/16 19:31:49;;;;;;;3.85;2.75;;;;;;;21.11;56.98;94795.88;2971059;39;20067;-71
2021/06/16 19:33:50;;;;;;;6.18;2.55;;;;;;;21.11;57.02;94803.84;2972203;39;20095;-72
2021/06/16 19:35:55;;;;;;;4.60;2.60;;;;;;;21.12;57.04;94810.00;2971058;40;20079;-71
2021/06/16 19:37:57;;;;;;;4.75;2.42;;;;;;;21.07;57.29;94815.97;2973955;40;20069;-73
2021/06/16 19:39:59;;;;;;;3.42;2.78;;;;;;;21.01;57.80;94823.00;2971776;39;20136;-74
2021/06/16 19:42:01;;;;;;;5.65;2.55;;;;;;;20.71;58.78;94828.22;2974015;39;20073;-74
2021/06/16 19:44:06;;;;;;;3.72;2.45;;;;;;;20.23;60.40;94844.75;2971369;39;20051;-71
2021/06/16 19:46:08;;;;;;;3.85;2.50;;;;;;;20.05;60.93;94858.78;2974268;39;20077;-73
2021/06/16 19:48:10;;;;;;;3.17;2.13;;;;;;;19.92;60.33;94866.81;2965283;40;20053;-72
2021/06/16 19:50:14;;;;;;;3.63;1.95;;;;;;;19.70;59.39;94861.00;2970751;39;20072;-74
2021/06/16 19:52:16;;;;;;;3.65;1.45;;;;;;;19.50;59.27;94866.38;2970541;39;20496;-82
2021/06/16 19:54:18;;;;;;;2.50;1.50;;;;;;;19.58;58.99;94860.81;2976129;39;20150;-85
2021/06/16 19:56:20;;;;;;;3.08;1.80;;;;;;;19.60;58.48;94864.09;2973299;39;20083;-86
2021/06/16 19:58:21;;;;;;;2.83;1.00;;;;;;;19.47;60.29;94858.81;2973851;39;20403;-85
2021/06/16 20:00:28;;;;;;;3.53;1.50;;;;;;;19.51;62.94;94871.47;2974774;39;20141;-82
2021/06/16 20:02:30;;;;;;;5.85;2.75;;;;;;;19.61;64.86;94879.81;2973545;40;20060;-83
2021/06/16 20:04:31;;;;;;;6.18;2.92;;;;;;;19.71;66.78;94890.03;2974729;39;20120;-83
2021/06/16 20:06:33;;;;;;;3.85;2.85;;;;;;;19.78;67.94;94897.97;2973963;40;20063;-72
2021/06/16 20:08:36;;;;;;;6.40;2.30;;;;;;;19.77;67.72;94899.81;2974664;39;20137;-74
2021/06/16 20:10:38;;;;;;;4.10;2.50;;;;;;;19.77;68.47;94907.00;2974094;39;20147;-72
2021/06/16 20:12:40;;;;;;;4.47;3.00;;;;;;;19.76;68.80;94905.34;2973933;39;20040;-73
2021/06/16 20:14:42;;;;;;;3.63;2.25;;;;;;;19.78;68.96;94911.25;2975878;39;20117;-70
2021/06/16 20:16:44;;;;;;;4.65;2.50;;;;;;;19.78;69.13;94913.91;2975269;40;20067;-73
2021/06/16 20:18:46;;;;;;;2.55;1.95;;;;;;;19.80;68.80;94914.53;2976105;39;20055;-73
2021/06/16 20:20:48;;;;;;;6.57;3.10;;;;;;;19.83;68.85;94919.41;2976018;39;20132;-72
2021/06/16 20:22:49;;;;;;;4.32;2.20;;;;;;;19.81;68.42;94906.34;2975400;39;20051;-74
2021/06/16 20:24:51;;;;;;;5.32;2.58;;;;;;;19.80;68.49;94907.38;2976010;39;20103;-72
2021/06/16 20:26:53;;;;;;;3.20;2.13;;;;;;;19.77;69.17;94914.97;2975567;39;20449;-73
2021/06/16 20:28:56;;;;;;;4.65;2.28;;;;;;;19.65;70.05;94912.09;2976346;39;20385;-72
2021/06/16 20:30:58;;;;;;;3.38;2.00;;;;;;;19.51;69.67;94907.84;2976003;39;20517;-72
2021/06/16 20:33:00;;;;;;;4.43;2.28;;;;;;;19.39;69.41;94902.38;2974580;39;20201;-74
2021/06/16 20:35:04;;;;;;;3.28;2.30;;;;;;;19.33;69.63;94905.84;2973311;39;20148;-72
2021/06/16 20:37:06;;;;;;;3.00;1.92;;;;;;;19.29;69.36;94888.72;2971632;39;20153;-73
2021/06/16 20:39:10;;;;;;;6.05;2.50;;;;;;;19.23;69.15;94893.84;2975725;40;20111;-75
2021/06/16 20:41:12;;;;;;;2.90;1.80;;;;;;;19.16;69.91;94885.03;2973301;39;20071;-83
2021/06/16 20:43:14;;;;;;;4.13;2.25;;;;;;;19.15;69.97;94878.13;2976762;39;20062;-84
2021/06/16 20:45:16;;;;;;;3.45;2.33;;;;;;;19.18;69.77;94875.03;2978892;39;20055;-83
2021/06/16 20:47:18;;;;;;;3.15;2.08;;;;;;;19.16;69.78;94873.63;2977207;39;20063;-86
2021/06/16 20:49:20;;;;;;;3.92;2.45;;;;;;;19.16;69.93;94877.09;2978296;39;20056;-86
2021/06/16 20:51:21;;;;;;;4.32;2.72;;;;;;;19.18;69.83;94867.06;2974078;39;20059;-82
2021/06/16 20:53:23;;;;;;;3.95;2.40;;;;;;;19.23;69.91;94874.44;2977930;39;20095;-83
2021/06/16 20:55:25;;;;;;;5.25;3.10;;;;;;;19.26;69.96;94875.84;2977409;40;20449;-84
2021/06/16 20:57:28;;;;;;;4.93;3.30;;;;;;;19.27;70.86;94872.97;2976356;39;20060;-83
2021/06/16 20:59:30;;;;;;;4.30;2.55;;;;;;;19.27;71.16;94872.97;2977229;39;20168;-84
2021/06/16 21:01:32;;;;;;;5.93;2.60;;;;;;;19.26;70.91;94860.72;2972854;39;20052;-84
2021/06/16 21:03:34;;;;;;;5.18;2.58;;;;;;;19.26;71.03;94867.88;2968434;39;20060;-83
2021/06/16 21:05:36;;;;;;;4.93;2.75;;;;;;;19.27;71.10;94861.53;2975384;39;20060;-84
2021/06/16 21:07:38;;;;;;;3.42;2.35;;;;;;;19.28;70.82;94857.88;2975731;39;20058;-83
2021/06/16 21:09:40;;;;;;;5.35;2.53;;;;;;;19.27;70.23;94861.53;2968423;40;20060;-82
2021/06/16 21:11:42;;;;;;;5.25;2.55;;;;;;;19.23;71.09;94856.66;2976475;39;20060;-85
2021/06/16 21:13:44;;;;;;;3.42;2.55;;;;;;;19.22;71.06;94857.66;2975713;39;20071;-83
2021/06/16 21:15:47;;;;;;;4.43;2.30;;;;;;;19.20;70.79;94853.59;2976814;39;20128;-84
2021/06/16 21:17:49;;;;;;;3.92;2.40;;;;;;;19.17;71.03;94860.13;2975885;40;20052;-82
2021/06/16 21:19:51;;;;;;;4.45;2.33;;;;;;;19.19;71.14;94867.91;2974852;39;20156;-83
2021/06/16 21:21:53;;;;;;;5.85;2.20;;;;;;;19.19;71.40;94863.41;2975207;39;20062;-82
2021/06/16 21:23:55;;;;;;;3.72;2.42;;;;;;;19.24;71.00;94858.28;2974419;39;20048;-83
2021/06/16 21:25:57;;;;;;;3.65;2.22;;;;;;;19.30;70.62;94859.28;2975549;39;20384;-86
2021/06/16 21:27:59;;;;;;;4.50;2.30;;;;;;;19.34;70.61;94857.03;2980559;39;20140;-86
2021/06/16 21:30:00;;;;;;;4.10;2.38;;;;;;;19.39;70.17;94847.41;2977186;39;20076;-83
2021/06/16 21:32:04;;;;;;;3.50;2.30;;;;;;;19.42;70.02;94851.47;2974828;39;20054;-82
2021/06/16 21:34:06;;;;;;;;;;;;;;;19.44;69.98;94860.03;2968029;40;20525;-84
2021/06/16 21:36:08;;;;;;;3.60;2.58;;;;;;;19.44;69.81;94862.69;2975460;40;20036;-84
2021/06/16 21:38:09;;;;;;;3.95;2.47;;;;;;;19.46;69.68;94852.69;2974286;39;20457;-82
2021/06/16 21:40:12;;;;;;;6.90;2.80;;;;;;;19.47;69.45;94858.81;2973823;40;20656;-82
2021/06/16 21:42:14;;;;;;;4.45;2.60;;;;;;;19.49;69.14;94862.06;2970305;39;20052;-82
2021/06/16 21:44:15;;;;;;;4.00;2.60;;;;;;;19.47;68.81;94864.97;2976131;39;20346;-82
2021/06/16 21:46:17;;;;;;;3.60;2.60;;;;;;;19.37;69.99;94862.72;2977328;39;20188;-85
2021/06/16 21:48:19;;;;;;;4.10;2.40;;;;;;;19.25;70.01;94867.03;2976248;39;20079;-82
2021/06/16 21:50:21;;;;;;;4.72;2.50;;;;;;;19.15;70.10;94870.16;2974878;39;20173;-82
2021/06/16 21:52:23;;;;;;;4.18;2.28;;;;;;;19.16;68.96;94873.63;2982539;39;20055;-82
2021/06/16 21:54:27;;;;;;;2.97;2.17;;;;;;;19.18;68.88;94875.03;2974680;39;20105;-84
2021/06/16 21:56:28;;;;;;;4.28;3.00;;;;;;;19.13;69.47;94874.84;2976278;39;20440;-84
2021/06/16 21:58:30;;;;;;;3.45;2.33;;;;;;;18.85;70.01;94876.94;2976272;39;20052;-82
2021/06/16 22:00:36;;;;;;;4.10;2.25;;;;;;;18.65;70.59;94884.88;2975728;39;20148;-84
2021/06/16 22:02:39;;;;;;;3.35;2.45;;;;;;;18.30;71.24;94888.53;2976019;39;20055;-83
2021/06/16 22:04:40;;;;;;;3.28;2.80;;;;;;;18.24;72.12;94892.00;2976037;39;20067;-85
2021/06/16 22:06:42;;;;;;;3.83;2.60;;;;;;;18.28;72.47;94893.22;2976757;39;20313;-82
2021/06/16 22:08:44;;;;;;;4.28;2.33;;;;;;;18.34;72.56;94887.09;2969596;39;20075;-81
2021/06/16 22:10:46;;;;;;;3.42;2.35;;;;;;;18.31;72.68;94897.31;2976329;40;20072;-82
2021/06/16 22:12:47;;;;;;;3.53;2.60;;;;;;;18.28;73.57;94903.81;2969815;39;20129;-83
2021/06/16 22:14:49;;;;;;;3.22;2.47;;;;;;;18.19;74.02;94894.44;2975089;39;20072;-83
2021/06/16 22:16:51;;;;;;;3.92;2.90;;;;;;;18.19;74.44;94894.44;2976481;39;20055;-80
2021/06/16 22:18:53;;;;;;;6.22;3.28;;;;;;;18.15;74.65;94901.16;2975493;40;20251;-81
2021/06/16 22:20:58;;;;;;;5.32;3.10;;;;;;;18.11;75.33;94900.75;2967347;40;20059;-81
2021/06/16 22:23:00;;;;;;;6.43;3.20;;;;;;;18.01;75.80;94902.97;2969719;39;20723;-82
2021/06/16 22:25:02;;;;;;;6.40;3.40;;;;;;;17.84;76.61;94904.34;2968702;40;20060;-81
2021/06/16 22:27:04;;;;;;;4.75;3.40;;;;;;;17.87;76.96;94907.38;2972309;39;20051;-82
2021/06/16 22:29:07;;;;;;;4.40;3.70;;;;;;;17.84;77.12;94897.19;2974816;39;20108;-83
2021/06/16 22:31:09;;;;;;;6.05;4.10;;;;;;;17.82;77.56;94909.84;2972915;39;20063;-74
2021/06/16 22:33:11;;;;;;;5.05;3.60;;;;;;;17.87;77.43;94906.59;2972753;39;20420;-71
2021/06/16 22:35:15;;;;;;;5.53;3.67;;;;;;;17.86;77.50;94905.78;2964250;40;20336;-74
2021/06/16 22:37:18;;;;;;;6.82;3.67;;;;;;;17.98;77.30;94904.19;2970630;39;20048;-72
2021/06/16 22:39:20;;;;;;;7.88;6.32;;;;;;;18.14;76.38;94903.00;2972452;39;20096;-74
2021/06/16 22:41:22;;;;;;;46.38;28.02;;;;;;;18.30;75.91;94909.75;2971402;39;20100;-74
2021/06/16 22:43:24;;;;;;;9.40;6.75;;;;;;;18.44;75.89;94907.94;2973018;39;20101;-73
2021/06/16 22:45:26;;;;;;;8.30;5.53;;;;;;;18.55;75.49;94906.53;2969195;39;20096;-75
2021/06/16 22:47:27;;;;;;;6.93;4.22;;;;;;;18.64;74.62;94910.59;2972073;39;20077;-75
2021/06/16 22:49:29;;;;;;;6.53;4.38;;;;;;;18.70;74.08;94911.63;2972708;39;20051;-72
2021/06/16 22:51:33;;;;;;;5.53;4.03;;;;;;;18.77;73.69;94912.44;2971071;39;20056;-72
2021/06/16 22:53:35;;;;;;;5.88;4.28;;;;;;;18.80;73.36;94914.72;2972693;39;20113;-73
2021/06/16 22:55:36;;;;;;;5.78;4.10;;;;;;;18.86;73.78;94913.06;2978299;39;20187;-71
2021/06/16 22:57:43;;;;;;;5.95;4.78;;;;;;;18.92;73.66;94914.91;2971512;39;20047;-72
2021/06/16 22:59:45;;;;;;;5.88;3.78;;;;;;;18.93;73.63;94906.75;2962780;40;20429;-74
2021/06/16 23:01:47;;;;;;;5.53;3.90;;;;;;;18.94;73.29;94918.19;2969103;40;20068;-71
2021/06/16 23:03:49;;;;;;;5.90;4.00;;;;;;;18.94;73.00;94919.00;2970574;40;20068;-71
2021/06/16 23:05:50;;;;;;;4.32;3.80;;;;;;;18.96;73.10;94916.13;2970833;39;20060;-72
2021/06/16 23:07:52;;;;;;;4.90;4.18;;;;;;;18.98;72.95;94919.41;2970850;39;20180;-72
2021/06/16 23:09:54;;;;;;;4.82;4.28;;;;;;;18.99;72.73;94915.72;2972959;39;20069;-72
2021/06/16 23:11:56;;;;;;;6.32;4.70;;;;;;;19.01;72.84;94918.97;2974516;39;20140;-72
2021/06/16 23:13:57;;;;;;;5.53;4.30;;;;;;;19.00;72.47;94917.38;2975264;39;20100;-72
2021/06/16 23:15:59;;;;;;;5.93;4.35;;;;;;;18.98;72.74;94914.09;2974660;39;20056;-73
2021/06/16 23:18:04;;;;;;;5.32;4.20;;;;;;;18.99;72.50;94918.38;2974176;39;20048;-73
2021/06/16 23:20:09;;;;;;;6.70;4.53;;;;;;;19.02;72.86;94910.00;2973781;39;20489;-83
2021/06/16 23:22:10;;;;;;;5.72;4.28;;;;;;;19.02;72.77;94910.00;2974528;39;20114;-82
2021/06/16 23:24:12;;;;;;;5.72;4.10;;;;;;;18.98;72.87;94917.56;2974127;40;20064;-81
2021/06/16 23:26:14;;;;;;;5.18;4.07;;;;;;;18.99;73.19;94921.88;2974570;39;20051;-83
2021/06/16 23:28:16;;;;;;;11.35;4.82;;;;;;;18.95;73.12;94925.09;2975221;39;20056;-84
2021/06/16 23:30:22;;;;;;;5.97;4.13;;;;;;;18.94;73.31;94918.19;2973609;40;20620;-82
2021/06/16 23:32:24;;;;;;;5.43;3.90;;;;;;;18.93;73.49;94920.03;2974084;39;20314;-80
2021/06/16 23:34:26;;;;;;;6.50;4.63;;;;;;;18.89;73.65;94931.25;2974501;39;20052;-81
2021/06/16 23:36:28;;;;;;;7.32;5.00;;;;;;;18.80;74.16;94925.34;2974390;39;20083;-81
2021/06/16 23:38:30;;;;;;;7.57;5.05;;;;;;;18.71;74.72;94921.22;2974365;40;20061;-82
2021/06/16 23:40:33;;;;;;;7.53;4.70;;;;;;;18.71;74.83;94923.88;2973915;39;20044;-81
2021/06/16 23:42:35;;;;;;;8.10;4.20;;;;;;;18.69;74.86;94920.59;2976104;39;20441;-81
2021/06/16 23:44:37;;;;;;;5.88;3.70;;;;;;;18.72;74.59;94922.84;2974336;39;20389;-82
2021/06/16 23:46:38;;;;;;;6.88;2.83;;;;;;;18.73;73.81;94925.28;2973658;39;20148;-83
2021/06/16 23:48:40;;;;;;;6.25;2.97;;;;;;;18.76;73.24;94914.28;2975394;39;20048;-82
2021/06/16 23:50:42;;;;;;;3.88;2.92;;;;;;;18.78;73.17;94914.13;2975717;40;20068;-81
2021/06/16 23:52:44;;;;;;;3.78;3.13;;;;;;;18.79;72.98;94916.53;2976702;39;20420;-82
2021/06/16 23:54:46;;;;;;;3.17;2.53;;;;;;;18.76;72.79;94924.91;2976020;39;20056;-83
2021/06/16 23:56:48;;;;;;;3.55;2.70;;;;;;;18.77;72.89;94915.91;2970573;39;20285;-80
2021/06/16 23:58:50;;;;;;;5.78;2.70;;;;;;;18.77;72.57;94910.59;2975943;39;20358;-81
